Disclaimer

Please do not use the information listed here in-flight or in-navigation, as they are not provided to us by the airports but are provided by volunteers, so they might be outdated.

Search


Regions


Airport information page

Radio informations:
START - 128.0 MHz
TAXIING - 121.9 MHz
Automatic Terminal Information Service (ATIS) - 127.4 MHz
KRUG - 120.7 MHz
Approach (APP) - 119.3 MHz

Airport informations:
Latitude: 44° 13' 30.26" N
Longitude: 043° 04' 54.80" E
Elevation: 1054 feet - 321 meters
Operating hours: 24 hour operations
Operating agency: Civil government, landing fees and diplomatic clearance may be required
Timezone: UTC+3(+4DT) - Last Sunday in March to last Sunday in October
Fuel: Jet fuel avaiable but type is unknown.

Runway information:
12/30 - 12796 x 197 feet< - >3900 x 60 meters

Recent METARs:
URMM 211800Z 08003MPS 0250 R12/0750N -DZ FG VV002 02/02 Q1017 R12/290250 NOSIG RMK QBB070 MT OBSC QFE734/0979
URMM 211830Z 09004MPS 0200 R12/0600N -DZ FG VV002 02/02 Q1017 R12/290250 NOSIG RMK QBB060 MT OBSC QFE734/0979
URMM 211900Z 09004MPS 0250 0200NW R12/0650N -DZ FG VV002 02/02 Q1017 R12/290250 NOSIG RMK QBB060 MT OBSC QFE734/0979

Airport on the map: